createdAt,value
2023-05-22T00:02:05.132Z,7.53
2023-05-22T00:04:32.418Z,8.20
2023-05-22T00:06:59.302Z,8.18
2023-05-22T00:09:26.394Z,7.55
2023-05-22T00:11:53.339Z,7.80
2023-05-22T00:14:20.108Z,7.75
2023-05-22T00:16:48.445Z,7.88
2023-05-22T00:19:17.305Z,7.68
2023-05-22T00:21:44.480Z,8.23
2023-05-22T00:24:11.444Z,9.07
2023-05-22T00:26:38.193Z,9.02
2023-05-22T00:29:07.994Z,7.75
2023-05-22T00:31:34.751Z,8.35
2023-05-22T00:34:01.621Z,8.32
2023-05-22T00:36:28.444Z,8.63
2023-05-22T00:38:55.136Z,8.70
2023-05-22T00:41:22.271Z,7.60
2023-05-22T00:43:50.939Z,7.78
2023-05-22T00:46:21.507Z,7.88
2023-05-22T00:48:48.959Z,8.07
2023-05-22T00:51:16.041Z,8.20
2023-05-22T00:53:44.281Z,8.23
2023-05-22T00:56:12.332Z,8.20
2023-05-22T00:58:39.264Z,7.97
2023-05-22T01:01:09.631Z,8.05
2023-05-22T01:03:42.389Z,7.60
2023-05-22T01:06:09.216Z,7.72
2023-05-22T01:08:35.960Z,7.53
2023-05-22T01:11:10.419Z,7.13
2023-05-22T01:13:53.272Z,7.88
2023-05-22T01:16:46.713Z,7.63
2023-05-22T01:19:22.692Z,8.80
2023-05-22T01:22:11.640Z,7.30
2023-05-22T01:24:53.142Z,8.32
2023-05-22T01:27:48.732Z,7.20
2023-05-22T01:31:00.270Z,7.88
2023-05-22T01:33:31.977Z,7.82
2023-05-22T01:36:01.386Z,7.35
2023-05-22T01:38:28.878Z,8.57
2023-05-22T01:40:57.582Z,8.02
2023-05-22T01:43:24.504Z,8.05
2023-05-22T01:45:51.537Z,7.30
2023-05-22T01:48:18.296Z,8.25
2023-05-22T01:50:48.503Z,7.85
2023-05-22T01:53:33.550Z,7.78
2023-05-22T01:56:05.194Z,8.38
2023-05-22T01:58:53.666Z,8.45
2023-05-22T02:01:24.243Z,8.00
2023-05-22T02:03:56.652Z,7.82
2023-05-22T02:06:25.902Z,6.95
2023-05-22T02:08:54.139Z,8.20
2023-05-22T02:11:22.913Z,6.78
2023-05-22T02:13:50.173Z,8.15
2023-05-22T02:16:18.056Z,7.13
2023-05-22T02:18:45.415Z,8.38
2023-05-22T02:21:12.148Z,7.57
2023-05-22T02:23:38.883Z,7.15
2023-05-22T02:26:06.020Z,9.00
2023-05-22T02:28:33.332Z,7.80
2023-05-22T02:31:00.067Z,7.53
2023-05-22T02:33:27.001Z,7.30
2023-05-22T02:35:53.823Z,7.43
2023-05-22T02:38:21.482Z,7.88
2023-05-22T02:40:49.672Z,7.30
2023-05-22T02:43:16.427Z,8.15
2023-05-22T02:45:43.177Z,8.35
2023-05-22T02:48:09.848Z,8.32
2023-05-22T02:50:36.632Z,8.07
2023-05-22T02:53:03.802Z,7.93
2023-05-22T02:55:30.513Z,8.50
2023-05-22T02:57:57.236Z,7.57
2023-05-22T03:00:24.013Z,8.15
2023-05-22T03:02:50.925Z,7.63
2023-05-22T03:05:18.252Z,8.40
2023-05-22T03:07:48.070Z,8.23
2023-05-22T03:10:15.543Z,7.88
2023-05-22T03:12:42.264Z,7.57
2023-05-22T03:15:09.625Z,7.85
2023-05-22T03:17:36.454Z,8.30
2023-05-22T03:20:05.284Z,7.90
2023-05-22T03:22:32.119Z,8.55
2023-05-22T03:24:58.849Z,8.27
2023-05-22T03:27:25.620Z,7.90
2023-05-22T03:29:52.663Z,7.97
2023-05-22T03:32:19.371Z,8.30
2023-05-22T03:34:46.143Z,6.90
2023-05-22T03:37:12.864Z,7.38
2023-05-22T03:39:39.892Z,7.85
2023-05-22T03:42:06.797Z,8.00
2023-05-22T03:44:33.545Z,7.88
2023-05-22T03:47:00.315Z,7.57
2023-05-22T03:49:27.095Z,7.65
2023-05-22T03:51:53.782Z,8.30
2023-05-22T03:54:21.034Z,8.23
2023-05-22T03:56:47.879Z,8.90
2023-05-22T03:59:14.669Z,8.30
2023-05-22T04:01:41.335Z,7.55
2023-05-22T04:04:09.556Z,9.23
2023-05-22T04:06:43.154Z,8.10
2023-05-22T04:09:13.810Z,7.82
2023-05-22T04:11:40.577Z,8.38
2023-05-22T04:14:07.371Z,7.93
2023-05-22T04:16:34.315Z,8.40
2023-05-22T04:19:03.290Z,7.40
2023-05-22T04:21:34.151Z,7.47
2023-05-22T04:24:01.777Z,8.05
2023-05-22T04:26:33.031Z,7.60
2023-05-22T04:28:59.784Z,7.32
2023-05-22T04:31:26.554Z,8.07
2023-05-22T04:33:54.584Z,7.88
2023-05-22T04:36:26.605Z,6.93
2023-05-22T04:38:54.115Z,8.00
2023-05-22T04:41:22.683Z,8.05
2023-05-22T04:43:49.807Z,8.10
2023-05-22T04:46:16.546Z,7.18
2023-05-22T04:48:43.274Z,8.20
2023-05-22T04:51:09.992Z,9.40
2023-05-22T04:53:38.719Z,8.07
2023-05-22T04:56:06.414Z,7.70
2023-05-22T04:58:33.427Z,8.57
2023-05-22T05:01:00.238Z,7.93
2023-05-22T05:03:27.293Z,7.55
2023-05-22T05:05:54.200Z,7.78
2023-05-22T05:08:20.919Z,9.27
2023-05-22T05:10:47.669Z,8.00
2023-05-22T05:13:14.406Z,7.47
2023-05-22T05:15:41.104Z,7.15
2023-05-22T05:18:07.837Z,7.75
2023-05-22T05:20:34.597Z,8.00
2023-05-22T05:23:01.372Z,7.95
2023-05-22T05:25:28.040Z,7.80
2023-05-22T05:27:54.743Z,9.10
2023-05-22T05:30:21.419Z,8.48
2023-05-22T05:32:48.213Z,8.85
2023-05-22T05:35:15.071Z,7.60
2023-05-22T05:37:41.843Z,7.78
2023-05-22T05:40:09.185Z,7.88
2023-05-22T05:42:35.987Z,8.20
2023-05-22T05:45:02.688Z,7.68
2023-05-22T05:47:29.730Z,8.85
2023-05-22T05:49:56.504Z,7.90
2023-05-22T05:52:24.743Z,8.57
2023-05-22T05:54:51.918Z,8.45
2023-05-22T05:57:18.637Z,8.90
2023-05-22T05:59:45.452Z,7.15
2023-05-22T06:02:12.411Z,8.35
2023-05-22T06:04:39.258Z,8.00
2023-05-22T06:07:06.414Z,8.57
2023-05-22T06:09:33.115Z,8.05
2023-05-22T06:11:59.923Z,7.55
2023-05-22T06:14:26.658Z,8.27
2023-05-22T06:16:53.470Z,7.70
2023-05-22T06:19:20.273Z,7.53
2023-05-22T06:21:47.102Z,8.27
2023-05-22T06:24:13.831Z,7.82
2023-05-22T06:26:40.654Z,8.13
2023-05-22T06:29:07.468Z,8.40
2023-05-22T06:31:35.413Z,7.30
2023-05-22T06:34:02.353Z,8.02
2023-05-22T06:36:29.291Z,7.93
2023-05-22T06:38:56.200Z,8.32
2023-05-22T06:41:22.945Z,8.48
2023-05-22T06:43:49.691Z,7.25
2023-05-22T06:46:16.516Z,7.25
2023-05-22T06:48:43.442Z,7.63
2023-05-22T06:51:11.637Z,8.00
2023-05-22T06:53:38.928Z,7.82
2023-05-22T06:56:06.155Z,8.50
2023-05-22T06:58:32.888Z,8.07
2023-05-22T07:00:59.710Z,7.78
2023-05-22T07:03:27.296Z,7.85
2023-05-22T07:05:56.830Z,8.70
2023-05-22T07:08:24.288Z,7.88
2023-05-22T07:10:51.669Z,8.38
2023-05-22T07:13:18.445Z,7.20
2023-05-22T07:15:46.647Z,7.38
2023-05-22T07:18:13.642Z,8.38
2023-05-22T07:20:40.749Z,8.15
2023-05-22T07:23:08.868Z,7.60
2023-05-22T07:25:35.941Z,8.65
2023-05-22T07:28:08.541Z,7.65
2023-05-22T07:30:39.459Z,8.07
2023-05-22T07:33:06.488Z,7.80
2023-05-22T07:35:33.515Z,8.38
2023-05-22T07:38:00.439Z,8.73
2023-05-22T07:40:27.130Z,7.57
2023-05-22T07:42:53.922Z,7.75
2023-05-22T07:45:20.644Z,8.30
2023-05-22T07:47:47.442Z,8.25
2023-05-22T07:50:14.144Z,7.85
2023-05-22T07:52:41.018Z,7.75
2023-05-22T07:55:08.389Z,8.23
2023-05-22T07:57:36.237Z,8.68
2023-05-22T08:00:13.919Z,8.23
2023-05-22T08:02:41.810Z,8.18
2023-05-22T08:05:09.797Z,8.18
2023-05-22T08:07:37.078Z,7.80
2023-05-22T08:10:08.457Z,8.00
2023-05-22T08:12:35.328Z,8.23
2023-05-22T08:15:02.160Z,7.70
2023-05-22T08:17:28.863Z,7.30
2023-05-22T08:19:55.908Z,8.23
2023-05-22T08:22:22.737Z,7.78
2023-05-22T08:24:49.496Z,7.82
2023-05-22T08:27:16.307Z,7.78
2023-05-22T08:29:43.171Z,7.45
2023-05-22T08:32:09.932Z,7.63
2023-05-22T08:34:36.815Z,7.75
2023-05-22T08:37:04.716Z,7.18
2023-05-22T08:39:31.467Z,7.20
2023-05-22T08:41:59.282Z,7.28
2023-05-22T08:44:26.093Z,7.20
2023-05-22T08:46:56.561Z,7.45
2023-05-22T08:49:24.500Z,7.22
2023-05-22T08:51:56.718Z,6.35
2023-05-22T08:54:26.308Z,7.22
2023-05-22T08:56:57.265Z,6.78
2023-05-22T08:59:24.953Z,7.57
2023-05-22T09:01:52.508Z,6.93
2023-05-22T09:04:23.670Z,7.03
2023-05-22T09:06:50.842Z,6.97
2023-05-22T09:09:17.924Z,7.18
2023-05-22T09:11:44.684Z,7.50
2023-05-22T09:14:12.048Z,6.32
2023-05-22T09:17:05.289Z,7.45
2023-05-22T09:19:32.174Z,8.23
2023-05-22T09:22:04.237Z,7.28
2023-05-22T09:24:31.369Z,7.03
2023-05-22T09:27:03.588Z,7.43
2023-05-22T09:29:30.400Z,6.68
2023-05-22T09:31:59.071Z,6.63
2023-05-22T09:34:32.852Z,7.22
2023-05-22T09:37:05.711Z,7.65
2023-05-22T09:39:40.854Z,7.30
2023-05-22T09:42:10.124Z,7.68
2023-05-22T09:44:37.175Z,6.15
2023-05-22T09:47:06.077Z,6.60
2023-05-22T09:49:37.610Z,6.03
2023-05-22T09:52:07.847Z,7.00
2023-05-22T09:54:35.447Z,7.03
2023-05-22T09:57:07.002Z,6.57
2023-05-22T09:59:35.112Z,6.72
2023-05-22T10:02:02.317Z,6.13
2023-05-22T10:04:33.662Z,7.43
2023-05-22T10:07:03.720Z,7.70
2023-05-22T10:09:34.700Z,7.70
2023-05-22T10:12:08.039Z,6.82
2023-05-22T10:14:36.404Z,6.40
2023-05-22T10:17:06.494Z,6.45
2023-05-22T10:19:33.664Z,6.85
2023-05-22T10:22:01.459Z,6.35
2023-05-22T10:24:29.417Z,6.70
2023-05-22T10:26:57.193Z,5.97
2023-05-22T10:29:34.184Z,6.45
2023-05-22T10:32:20.432Z,6.65
2023-05-22T10:35:16.647Z,6.50
2023-05-22T10:37:56.584Z,6.97
2023-05-22T10:40:31.781Z,7.35
2023-05-22T10:42:59.875Z,7.20
2023-05-22T10:45:28.996Z,7.05
2023-05-22T10:48:06.933Z,7.28
2023-05-22T10:53:22.417Z,6.35
2023-05-22T10:55:49.910Z,6.55
2023-05-22T10:58:17.944Z,7.55
2023-05-22T11:00:47.729Z,6.60
2023-05-22T11:03:18.314Z,6.30
2023-05-22T11:05:53.410Z,6.97
2023-05-22T11:08:26.174Z,7.38
2023-05-22T11:10:53.739Z,6.93
2023-05-22T11:13:20.695Z,5.85
2023-05-22T11:15:48.388Z,6.35
2023-05-22T11:18:16.811Z,6.43
2023-05-22T11:20:44.377Z,6.68
2023-05-22T11:23:11.410Z,7.03
2023-05-22T11:25:41.062Z,7.07
2023-05-22T11:28:08.032Z,7.30
2023-05-22T11:30:35.064Z,6.80
2023-05-22T11:33:02.686Z,6.45
2023-05-22T11:35:29.637Z,6.97
2023-05-22T11:37:56.873Z,7.38
2023-05-22T11:40:27.040Z,6.80
2023-05-22T11:42:53.970Z,7.18
2023-05-22T11:45:21.483Z,6.57
2023-05-22T11:47:51.308Z,7.28
2023-05-22T11:50:29.237Z,7.13
2023-05-22T11:53:01.696Z,6.47
2023-05-22T11:55:28.364Z,6.68
2023-05-22T11:57:56.501Z,7.20
2023-05-22T12:00:23.377Z,7.28
2023-05-22T12:02:50.337Z,7.00
2023-05-22T12:05:17.195Z,7.10
2023-05-22T12:07:44.164Z,6.88
2023-05-22T12:10:11.311Z,6.53
2023-05-22T12:12:38.935Z,7.25
2023-05-22T12:15:07.355Z,6.50
2023-05-22T12:17:37.644Z,6.47
2023-05-22T12:20:05.741Z,7.20
2023-05-22T12:22:32.570Z,6.57
2023-05-22T12:24:59.341Z,6.05
2023-05-22T12:27:33.038Z,5.93
2023-05-22T12:30:08.318Z,6.63
2023-05-22T12:32:35.256Z,6.55
2023-05-22T12:35:01.981Z,6.15
2023-05-22T12:37:28.905Z,6.13
2023-05-22T12:39:57.482Z,6.25
2023-05-22T12:42:25.776Z,6.47
2023-05-22T12:44:57.154Z,7.15
2023-05-22T12:47:24.880Z,6.78
2023-05-22T12:49:51.930Z,6.68
2023-05-22T12:52:18.906Z,5.90
2023-05-22T12:54:46.119Z,6.60
2023-05-22T12:57:12.879Z,6.32
2023-05-22T12:59:39.572Z,5.97
2023-05-22T13:02:06.623Z,6.18
2023-05-22T13:04:33.621Z,5.93
2023-05-22T13:07:00.653Z,6.15
2023-05-22T13:09:27.456Z,6.60
2023-05-22T13:11:54.790Z,6.10
2023-05-22T13:14:21.581Z,5.82
2023-05-22T13:16:48.331Z,5.40
2023-05-22T13:19:15.157Z,6.82
2023-05-22T13:21:42.800Z,6.20
2023-05-22T13:24:09.492Z,6.47
2023-05-22T13:26:36.153Z,6.05
2023-05-22T13:29:02.883Z,5.53
2023-05-22T13:31:29.625Z,5.55
2023-05-22T13:33:56.446Z,6.05
2023-05-22T13:36:23.282Z,6.38
2023-05-22T13:38:50.027Z,5.75
2023-05-22T13:41:17.782Z,6.00
2023-05-22T13:43:44.578Z,5.68
2023-05-22T13:46:11.383Z,6.38
2023-05-22T13:48:38.718Z,5.93
2023-05-22T13:51:05.593Z,5.43
2023-05-22T13:53:32.323Z,5.43
2023-05-22T13:55:59.040Z,5.70
2023-05-22T13:58:25.830Z,5.85
2023-05-22T14:00:52.583Z,6.10
2023-05-22T14:03:19.365Z,5.38
2023-05-22T14:05:46.153Z,6.10
2023-05-22T14:08:13.397Z,5.43
2023-05-22T14:10:40.443Z,5.22
2023-05-22T14:13:08.599Z,5.38
2023-05-22T14:15:35.411Z,5.80
2023-05-22T14:18:02.187Z,5.50
2023-05-22T14:20:28.871Z,5.28
2023-05-22T14:22:57.713Z,6.03
2023-05-22T14:25:26.177Z,5.68
2023-05-22T14:27:53.069Z,5.32
2023-05-22T14:30:19.821Z,5.40
2023-05-22T14:32:46.859Z,5.78
2023-05-22T14:35:13.835Z,5.70
2023-05-22T14:37:40.621Z,5.70
2023-05-22T14:40:08.204Z,5.80
2023-05-22T14:42:35.702Z,5.70
2023-05-22T14:45:03.823Z,5.05
2023-05-22T14:47:30.662Z,5.10
2023-05-22T14:50:03.087Z,5.30
2023-05-22T14:52:41.362Z,5.90
2023-05-22T14:55:08.574Z,5.40
2023-05-22T14:57:35.351Z,6.40
2023-05-22T15:00:02.200Z,6.90
2023-05-22T15:02:28.960Z,7.53
2023-05-22T15:04:56.089Z,7.30
2023-05-22T15:07:29.257Z,7.40
2023-05-22T15:10:02.409Z,8.27
2023-05-22T15:12:29.160Z,7.60
2023-05-22T15:14:55.919Z,6.35
2023-05-22T15:17:22.738Z,7.68
2023-05-22T15:19:49.723Z,7.35
2023-05-22T15:22:19.910Z,6.65
2023-05-22T15:25:04.316Z,6.85
2023-05-22T15:27:31.364Z,7.43
2023-05-22T15:29:58.110Z,6.88
2023-05-22T15:32:24.834Z,6.65
2023-05-22T15:34:52.358Z,6.20
2023-05-22T15:37:19.332Z,5.97
2023-05-22T15:39:46.100Z,5.35
2023-05-22T15:42:12.868Z,6.05
2023-05-22T15:44:39.623Z,5.75
2023-05-22T15:47:06.476Z,5.55
2023-05-22T15:49:33.158Z,4.95
2023-05-22T15:51:59.879Z,4.65
2023-05-22T15:54:26.611Z,4.57
2023-05-22T15:56:53.381Z,4.15
2023-05-22T15:59:20.285Z,4.40
2023-05-22T16:01:47.281Z,3.97
2023-05-22T16:04:14.098Z,4.07
2023-05-22T16:06:40.982Z,3.92
2023-05-22T16:09:08.092Z,3.53
2023-05-22T16:11:34.892Z,3.90
2023-05-22T16:14:01.626Z,4.47
2023-05-22T16:16:28.517Z,4.13
2023-05-22T16:18:55.566Z,4.47
2023-05-22T16:21:22.367Z,4.07
2023-05-22T16:23:49.118Z,5.03
2023-05-22T16:26:16.087Z,3.97
2023-05-22T16:28:42.834Z,4.35
2023-05-22T16:31:09.700Z,4.40
2023-05-22T16:33:37.478Z,4.28
2023-05-22T16:36:04.624Z,3.95
2023-05-22T16:38:31.461Z,3.85
2023-05-22T16:40:58.618Z,4.50
2023-05-22T16:43:25.400Z,4.50
2023-05-22T16:45:52.200Z,4.10
2023-05-22T16:48:19.243Z,4.55
2023-05-22T16:50:46.703Z,4.15
2023-05-22T16:53:16.599Z,4.18
2023-05-22T16:55:43.562Z,4.57
2023-05-22T16:58:11.685Z,4.40
2023-05-22T17:00:40.153Z,4.22
2023-05-22T17:03:08.437Z,4.20
2023-05-22T17:05:36.600Z,4.25
2023-05-22T17:08:03.743Z,4.47
2023-05-22T17:10:30.491Z,4.32
2023-05-22T17:12:57.301Z,4.63
2023-05-22T17:15:24.200Z,4.25
2023-05-22T17:17:51.324Z,4.43
2023-05-22T17:20:18.296Z,3.53
2023-05-22T17:22:45.008Z,3.83
2023-05-22T17:25:11.752Z,4.50
2023-05-22T17:27:38.551Z,4.15
2023-05-22T17:30:06.957Z,4.25
2023-05-22T17:32:34.599Z,4.10
2023-05-22T17:35:06.365Z,4.00
2023-05-22T17:37:34.159Z,3.88
2023-05-22T17:40:00.990Z,4.05
2023-05-22T17:42:27.718Z,4.15
2023-05-22T17:44:54.496Z,4.13
2023-05-22T17:47:21.350Z,3.60
2023-05-22T17:49:48.355Z,4.03
2023-05-22T17:52:15.173Z,3.90
2023-05-22T17:54:43.732Z,4.22
2023-05-22T17:57:10.616Z,4.07
2023-05-22T17:59:39.874Z,4.07
2023-05-22T18:02:07.676Z,4.38
2023-05-22T18:04:34.348Z,4.03
2023-05-22T18:07:01.435Z,4.93
2023-05-22T18:09:28.223Z,4.30
2023-05-22T18:11:55.051Z,4.25
2023-05-22T18:14:21.756Z,3.97
2023-05-22T18:16:48.558Z,4.75
2023-05-22T18:19:15.383Z,4.60
2023-05-22T18:21:43.082Z,4.05
2023-05-22T18:24:09.939Z,4.63
2023-05-22T18:26:36.685Z,4.00
2023-05-22T18:29:03.414Z,4.75
2023-05-22T18:31:30.685Z,4.57
2023-05-22T18:33:57.474Z,4.60
2023-05-22T18:36:24.321Z,4.32
2023-05-22T18:38:51.162Z,4.88
2023-05-22T18:41:17.836Z,5.63
2023-05-22T18:43:44.578Z,4.72
2023-05-22T18:46:11.351Z,5.47
2023-05-22T18:48:38.094Z,5.47
2023-05-22T18:51:04.936Z,4.78
2023-05-22T18:53:31.781Z,4.93
2023-05-22T18:55:58.524Z,4.25
2023-05-22T18:58:25.577Z,4.85
2023-05-22T19:00:55.269Z,5.40
2023-05-22T19:03:22.166Z,5.70
2023-05-22T19:05:48.905Z,5.35
2023-05-22T19:08:15.770Z,5.68
2023-05-22T19:10:42.750Z,5.50
2023-05-22T19:13:09.703Z,5.50
2023-05-22T19:15:37.562Z,5.72
2023-05-22T19:18:04.492Z,5.10
2023-05-22T19:20:31.270Z,5.90
2023-05-22T19:22:58.424Z,5.22
2023-05-22T19:25:25.245Z,5.65
2023-05-22T19:27:52.223Z,5.30
2023-05-22T19:30:19.165Z,5.30
2023-05-22T19:32:46.826Z,5.88
2023-05-22T19:35:13.665Z,5.15
2023-05-22T19:37:40.419Z,5.70
2023-05-22T19:40:09.588Z,5.53
2023-05-22T19:42:38.808Z,5.35
2023-05-22T19:45:06.189Z,5.50
2023-05-22T19:47:32.899Z,5.97
2023-05-22T19:49:59.792Z,6.18
2023-05-22T19:52:26.764Z,5.43
2023-05-22T19:54:53.604Z,5.40
2023-05-22T19:57:20.456Z,5.03
2023-05-22T19:59:47.213Z,5.38
2023-05-22T20:02:13.909Z,5.20
2023-05-22T20:04:43.598Z,5.03
2023-05-22T20:07:10.726Z,4.90
2023-05-22T20:09:37.561Z,4.70
2023-05-22T20:12:04.474Z,5.32
2023-05-22T20:14:31.278Z,4.72
2023-05-22T20:16:59.253Z,5.22
2023-05-22T20:19:27.509Z,4.57
2023-05-22T20:21:54.417Z,4.78
2023-05-22T20:24:21.165Z,4.88
2023-05-22T20:26:48.195Z,5.40
2023-05-22T20:29:15.330Z,5.70
2023-05-22T20:31:42.420Z,5.03
2023-05-22T20:34:09.575Z,4.72
2023-05-22T20:36:36.632Z,4.68
2023-05-22T20:39:03.767Z,5.65
2023-05-22T20:41:30.553Z,5.40
2023-05-22T20:43:58.686Z,4.55
2023-05-22T20:46:26.706Z,5.63
2023-05-22T20:48:54.020Z,5.45
2023-05-22T20:51:21.588Z,4.80
2023-05-22T20:53:49.649Z,5.05
2023-05-22T20:56:16.540Z,5.18
2023-05-22T20:58:43.220Z,4.97
2023-05-22T21:01:09.989Z,4.82
2023-05-22T21:03:36.708Z,4.97
2023-05-22T21:06:03.563Z,4.47
2023-05-22T21:08:30.549Z,4.80
2023-05-22T21:10:57.297Z,5.28
2023-05-22T21:13:24.019Z,5.03
2023-05-22T21:15:50.763Z,5.15
2023-05-22T21:18:19.733Z,5.63
2023-05-22T21:20:46.648Z,6.57
2023-05-22T21:23:13.378Z,5.30
2023-05-22T21:25:40.114Z,5.43
2023-05-22T21:28:07.767Z,5.82
2023-05-22T21:30:34.523Z,4.68
2023-05-22T21:33:01.373Z,5.57
2023-05-22T21:35:28.282Z,5.13
2023-05-22T21:37:54.972Z,4.63
2023-05-22T21:40:21.652Z,5.18
2023-05-22T21:42:48.320Z,4.60
2023-05-22T21:45:15.234Z,5.53
2023-05-22T21:47:42.027Z,5.00
2023-05-22T21:50:09.142Z,4.63
2023-05-22T21:52:35.871Z,4.13
2023-05-22T21:55:02.747Z,4.53
2023-05-22T21:57:29.864Z,4.47
2023-05-22T21:59:56.554Z,4.70
2023-05-22T22:02:23.345Z,4.63
2023-05-22T22:04:50.208Z,5.13
2023-05-22T22:07:16.952Z,4.50
2023-05-22T22:09:43.708Z,4.60
2023-05-22T22:12:10.516Z,4.50
2023-05-22T22:14:37.323Z,4.80
2023-05-22T22:17:05.974Z,4.60
2023-05-22T22:19:34.433Z,4.30
2023-05-22T22:22:01.926Z,5.20
2023-05-22T22:24:29.611Z,5.18
2023-05-22T22:26:56.719Z,5.68
2023-05-22T22:29:23.517Z,5.07
2023-05-22T22:31:50.423Z,5.00
2023-05-22T22:34:17.281Z,4.93
2023-05-22T22:36:44.218Z,5.35
2023-05-22T22:39:11.196Z,4.80
2023-05-22T22:41:37.881Z,5.00
2023-05-22T22:44:04.749Z,4.30
2023-05-22T22:46:32.171Z,5.13
2023-05-22T22:49:01.684Z,5.43
2023-05-22T22:51:31.884Z,5.90
2023-05-22T22:53:58.645Z,5.60
2023-05-22T22:56:29.261Z,5.18
2023-05-22T22:58:57.140Z,5.47
2023-05-22T23:01:24.282Z,5.22
2023-05-22T23:03:51.510Z,4.97
2023-05-22T23:06:18.495Z,5.57
2023-05-22T23:08:45.706Z,5.22
2023-05-22T23:11:12.492Z,5.28
2023-05-22T23:13:41.146Z,5.15
2023-05-22T23:16:08.279Z,6.05
2023-05-22T23:18:35.293Z,5.30
2023-05-22T23:21:02.066Z,4.80
2023-05-22T23:23:28.918Z,5.18
2023-05-22T23:25:58.063Z,5.22
2023-05-22T23:28:25.846Z,5.18
2023-05-22T23:30:52.886Z,5.78
2023-05-22T23:33:19.758Z,5.00
2023-05-22T23:35:46.619Z,5.88
2023-05-22T23:38:13.352Z,5.60
2023-05-22T23:40:40.076Z,5.70
2023-05-22T23:43:06.912Z,5.63
2023-05-22T23:45:33.604Z,5.95
2023-05-22T23:48:00.377Z,6.10
2023-05-22T23:50:27.080Z,5.57
2023-05-22T23:52:54.153Z,4.97
2023-05-22T23:55:20.993Z,7.10
2023-05-22T23:57:47.717Z,7.13
